Observations
| Time | Sensor | AQI | SAQ | Temp °C | Hum % | Pres Pa | CO μg/m³ | H₂S μg/m³ | NO μg/m³ | NO₂ μg/m³ | O₃ μg/m³ | SO₂ μg/m³ | CO₂e PPM | VOC PPM | PM1 μg/m³ | PM2.5 μg/m³ | PM4 μg/m³ | PM10 μg/m³ | TPS µm |
|---|---|---|---|---|---|---|---|---|---|---|---|---|---|---|---|---|---|---|---|
| Wednesday 12 August 2026 | |||||||||||||||||||
| 22:40 | Trim Market St | 3 | 24.9 | 52 | 55,910 | 0 | 0 | 0.89 | 16.39 | 67.35 | 0 | 2.14 | 4.94 | 6.06 | |||||
| 22:40 | Trim Patrick St | 3 | 24.2 | 54 | 69,547 | 0 | 13.7 | 0.91 | 25.3 | 51.72 | 7.8 | 4.57 | 9.93 | 10.92 | |||||
| 22:39 | Trim Market St | 3 | 24.9 | 52 | 55,931 | 0 | 0 | 0.89 | 17.06 | 65.71 | 0 | 2.85 | 5.96 | 7.53 | |||||
| 22:39 | Trim Patrick St | 3 | 24.2 | 54 | 69,541 | 0 | 14.31 | 0.9 | 32.16 | 54.68 | 7.87 | 2.86 | 9.17 | 10.09 | |||||
| 22:38 | Trim Market St | 3 | 24.9 | 52 | 55,943 | 0 | 0 | 0.88 | 14.87 | 73.61 | 0 | 2.85 | 4.43 | 5.32 | |||||
| 22:37 | Trim Market St | 3 | 24.9 | 52 | 55,948 | 0 | 0 | 0.89 | 26.78 | 57.38 | 0 | 2.14 | 4.43 | 6.06 | |||||
| 22:37 | Trim Patrick St | 3 | 24.3 | 54 | 69,565 | 0 | 11.97 | 0.91 | 22.45 | 55.54 | 7.78 | 4.57 | 9.19 | 10.11 | |||||
| 22:36 | Trim Market St | 3 | 25 | 52 | 55,889 | 0 | 0 | 0.88 | 21.36 | 64.48 | 0 | 2.14 | 4.43 | 5.32 | |||||
| 22:35 | Trim Patrick St | 3 | 24.3 | 54 | 69,535 | 0 | 13.56 | 0.88 | 25.75 | 53.15 | 8.38 | 5.43 | 9.91 | 10.9 | |||||
| 22:34 | Trim Market St | 3 | 25 | 52 | 55,888 | 0 | 0 | 0.9 | 18.88 | 65.87 | 0 | 1.43 | 3.93 | 4.58 | |||||
| 22:34 | Trim Patrick St | 3 | 24.4 | 54 | 69,525 | 0 | 14.01 | 0.88 | 21.6 | 54.83 | 8.74 | 4.57 | 9.15 | 10.07 | |||||
| 22:33 | Trim Market St | 3 | 25 | 52 | 55,854 | 0 | 0 | 0.91 | 20.65 | 66.38 | 0 | 2.14 | 4.95 | 6.05 | |||||
| 22:33 | Trim Patrick St | 3 | 24.4 | 54 | 69,515 | 0 | 14.3 | 0.87 | 29.76 | 51.9 | 8.27 | 3.71 | 9.14 | 10.06 | |||||
| 22:32 | Trim Patrick St | 3 | 24.4 | 54 | 69,527 | 0 | 13.91 | 0.88 | 26.14 | 51.56 | 8.23 | 3.71 | 9.17 | 10.09 | |||||
| 22:31 | Trim Patrick St | 3 | 24.4 | 53 | 69,513 | 0 | 16.85 | 0.9 | 28.74 | 50.98 | 8.93 | 4.57 | 9.22 | 10.15 | |||||
| 22:30 | Trim Patrick St | 3 | 24.5 | 54 | 69,493 | 0 | 16.58 | 0.87 | 31.26 | 50.29 | 8.61 | 3.71 | 9.19 | 10.11 | |||||
| 22:29 | Trim Patrick St | 3 | 24.5 | 52 | 69,471 | 0 | 17.83 | 0.92 | 38.09 | 57.24 | 9.6 | 5.43 | 10.83 | 11.92 | |||||
| 22:28 | Trim Market St | 3 | 25.1 | 51 | 55,830 | 0 | 0 | 0.86 | 17.44 | 65.93 | 0 | 2.14 | 4.45 | 5.31 | |||||
| 22:26 | Trim Patrick St | 3 | 24.6 | 54 | 69,414 | 0 | 17.27 | 0.89 | 30.98 | 53.35 | 9.2 | 4.57 | 9.19 | 10.11 | |||||
| 22:25 | Trim Patrick St | 3 | 24.6 | 54 | 69,367 | 0 | 19.02 | 0.9 | 40.85 | 51.59 | 8.85 | 5.43 | 10.73 | 11.8 | |||||